sensor_id;sensor_type;location;lat;lon;timestamp;P1;durP1;ratioP1;P2;durP2;ratioP2
23388;SDS011;11867;51.198;11.966;2022-12-18T00:00:15;49.17;;;23.27;;
23388;SDS011;11867;51.198;11.966;2022-12-18T00:01:18;47.85;;;22.33;;
23388;SDS011;11867;51.198;11.966;2022-12-18T00:02:21;44.15;;;20.95;;
23388;SDS011;11867;51.198;11.966;2022-12-18T00:03:24;45.45;;;22.15;;
23388;SDS011;11867;51.198;11.966;2022-12-18T00:04:27;50.25;;;22.92;;
23388;SDS011;11867;51.198;11.966;2022-12-18T00:05:35;52.92;;;23.65;;
23388;SDS011;11867;51.198;11.966;2022-12-18T00:06:38;52.95;;;23.95;;
23388;SDS011;11867;51.198;11.966;2022-12-18T00:07:44;50.00;;;22.05;;
23388;SDS011;11867;51.198;11.966;2022-12-18T00:08:46;43.13;;;21.08;;
23388;SDS011;11867;51.198;11.966;2022-12-18T00:09:49;45.13;;;20.98;;
23388;SDS011;11867;51.198;11.966;2022-12-18T00:10:51;41.47;;;21.08;;
23388;SDS011;11867;51.198;11.966;2022-12-18T00:12:00;43.42;;;19.73;;
23388;SDS011;11867;51.198;11.966;2022-12-18T00:13:16;40.13;;;20.08;;
23388;SDS011;11867;51.198;11.966;2022-12-18T00:14:18;46.25;;;21.25;;
23388;SDS011;11867;51.198;11.966;2022-12-18T00:15:20;43.85;;;21.38;;
23388;SDS011;11867;51.198;11.966;2022-12-18T00:16:24;42.75;;;20.50;;
23388;SDS011;11867;51.198;11.966;2022-12-18T00:17:31;43.45;;;20.02;;
23388;SDS011;11867;51.198;11.966;2022-12-18T00:18:34;37.20;;;19.27;;
23388;SDS011;11867;51.198;11.966;2022-12-18T00:19:36;39.40;;;19.48;;
23388;SDS011;11867;51.198;11.966;2022-12-18T00:20:42;40.97;;;19.08;;
23388;SDS011;11867;51.198;11.966;2022-12-18T00:21:45;41.17;;;20.83;;
23388;SDS011;11867;51.198;11.966;2022-12-18T00:22:48;38.47;;;19.23;;
23388;SDS011;11867;51.198;11.966;2022-12-18T00:23:50;42.33;;;19.92;;
23388;SDS011;11867;51.198;11.966;2022-12-18T00:24:56;44.88;;;19.88;;
23388;SDS011;11867;51.198;11.966;2022-12-18T00:25:58;40.25;;;20.63;;
23388;SDS011;11867;51.198;11.966;2022-12-18T00:27:03;39.53;;;19.67;;
23388;SDS011;11867;51.198;11.966;2022-12-18T00:28:05;42.30;;;19.83;;
23388;SDS011;11867;51.198;11.966;2022-12-18T00:29:11;40.10;;;20.33;;
23388;SDS011;11867;51.198;11.966;2022-12-18T00:30:15;41.20;;;21.08;;
23388;SDS011;11867;51.198;11.966;2022-12-18T00:31:18;41.42;;;20.05;;
23388;SDS011;11867;51.198;11.966;2022-12-18T00:32:21;45.85;;;20.67;;
23388;SDS011;11867;51.198;11.966;2022-12-18T00:33:24;47.22;;;21.02;;
23388;SDS011;11867;51.198;11.966;2022-12-18T00:34:29;37.53;;;20.48;;
23388;SDS011;11867;51.198;11.966;2022-12-18T00:35:32;44.55;;;20.17;;
23388;SDS011;11867;51.198;11.966;2022-12-18T00:36:37;41.05;;;20.38;;
23388;SDS011;11867;51.198;11.966;2022-12-18T00:37:56;42.65;;;19.38;;
23388;SDS011;11867;51.198;11.966;2022-12-18T00:38:58;44.83;;;19.67;;
23388;SDS011;11867;51.198;11.966;2022-12-18T00:40:05;43.78;;;19.20;;
23388;SDS011;11867;51.198;11.966;2022-12-18T00:41:08;38.83;;;19.08;;
23388;SDS011;11867;51.198;11.966;2022-12-18T00:42:14;36.45;;;18.38;;
23388;SDS011;11867;51.198;11.966;2022-12-18T00:43:34;33.47;;;14.43;;
23388;SDS011;11867;51.198;11.966;2022-12-18T00:44:36;36.28;;;18.17;;
23388;SDS011;11867;51.198;11.966;2022-12-18T00:45:41;40.88;;;19.02;;
23388;SDS011;11867;51.198;11.966;2022-12-18T00:46:47;41.20;;;18.23;;
23388;SDS011;11867;51.198;11.966;2022-12-18T00:47:52;36.55;;;18.23;;
23388;SDS011;11867;51.198;11.966;2022-12-18T00:49:01;42.95;;;19.33;;
23388;SDS011;11867;51.198;11.966;2022-12-18T00:50:06;31.27;;;16.92;;
23388;SDS011;11867;51.198;11.966;2022-12-18T00:51:10;33.83;;;17.75;;
23388;SDS011;11867;51.198;11.966;2022-12-18T00:52:14;39.45;;;17.75;;
23388;SDS011;11867;51.198;11.966;2022-12-18T00:53:18;41.55;;;18.30;;
23388;SDS011;11867;51.198;11.966;2022-12-18T00:54:20;37.38;;;17.75;;
23388;SDS011;11867;51.198;11.966;2022-12-18T00:55:23;34.60;;;17.73;;
23388;SDS011;11867;51.198;11.966;2022-12-18T00:56:25;40.33;;;18.83;;
23388;SDS011;11867;51.198;11.966;2022-12-18T00:57:30;32.85;;;17.20;;
23388;SDS011;11867;51.198;11.966;2022-12-18T00:58:32;41.25;;;18.25;;
23388;SDS011;11867;51.198;11.966;2022-12-18T00:59:34;34.90;;;18.20;;
23388;SDS011;11867;51.198;11.966;2022-12-18T01:00:39;41.70;;;18.55;;
23388;SDS011;11867;51.198;11.966;2022-12-18T01:01:42;38.67;;;18.27;;
23388;SDS011;11867;51.198;11.966;2022-12-18T01:02:44;32.30;;;16.88;;
23388;SDS011;11867;51.198;11.966;2022-12-18T01:03:47;39.58;;;19.05;;
23388;SDS011;11867;51.198;11.966;2022-12-18T01:04:48;33.65;;;18.20;;
23388;SDS011;11867;51.198;11.966;2022-12-18T01:05:51;41.35;;;16.70;;
23388;SDS011;11867;51.198;11.966;2022-12-18T01:06:54;33.95;;;17.55;;
23388;SDS011;11867;51.198;11.966;2022-12-18T01:07:56;38.25;;;17.92;;
23388;SDS011;11867;51.198;11.966;2022-12-18T01:09:02;34.97;;;17.90;;
23388;SDS011;11867;51.198;11.966;2022-12-18T01:10:05;38.33;;;18.85;;
23388;SDS011;11867;51.198;11.966;2022-12-18T01:11:10;46.78;;;19.35;;
23388;SDS011;11867;51.198;11.966;2022-12-18T01:12:13;44.50;;;17.95;;
23388;SDS011;11867;51.198;11.966;2022-12-18T01:13:18;37.67;;;17.27;;
23388;SDS011;11867;51.198;11.966;2022-12-18T01:14:20;39.45;;;18.00;;
23388;SDS011;11867;51.198;11.966;2022-12-18T01:15:23;36.30;;;16.40;;
23388;SDS011;11867;51.198;11.966;2022-12-18T01:16:24;35.00;;;17.60;;
23388;SDS011;11867;51.198;11.966;2022-12-18T01:17:27;36.10;;;18.63;;
23388;SDS011;11867;51.198;11.966;2022-12-18T01:18:30;36.40;;;17.83;;
23388;SDS011;11867;51.198;11.966;2022-12-18T01:19:35;34.80;;;16.95;;
23388;SDS011;11867;51.198;11.966;2022-12-18T01:20:37;38.85;;;17.45;;
23388;SDS011;11867;51.198;11.966;2022-12-18T01:21:40;40.42;;;16.80;;
23388;SDS011;11867;51.198;11.966;2022-12-18T01:22:42;34.28;;;17.17;;
23388;SDS011;11867;51.198;11.966;2022-12-18T01:23:47;33.63;;;16.88;;
23388;SDS011;11867;51.198;11.966;2022-12-18T01:24:54;36.70;;;16.35;;
23388;SDS011;11867;51.198;11.966;2022-12-18T01:26:03;34.78;;;18.38;;
23388;SDS011;11867;51.198;11.966;2022-12-18T01:27:07;38.88;;;18.13;;
23388;SDS011;11867;51.198;11.966;2022-12-18T01:28:10;32.25;;;16.50;;
23388;SDS011;11867;51.198;11.966;2022-12-18T01:29:12;34.35;;;16.25;;
23388;SDS011;11867;51.198;11.966;2022-12-18T01:30:15;32.10;;;16.85;;
23388;SDS011;11867;51.198;11.966;2022-12-18T01:31:17;36.05;;;17.08;;
23388;SDS011;11867;51.198;11.966;2022-12-18T01:32:21;33.08;;;16.08;;
23388;SDS011;11867;51.198;11.966;2022-12-18T01:33:23;38.60;;;17.50;;
23388;SDS011;11867;51.198;11.966;2022-12-18T01:34:26;36.35;;;17.38;;
23388;SDS011;11867;51.198;11.966;2022-12-18T01:35:28;35.08;;;17.15;;
23388;SDS011;11867;51.198;11.966;2022-12-18T01:36:31;35.40;;;16.95;;
23388;SDS011;11867;51.198;11.966;2022-12-18T01:37:34;33.50;;;16.13;;
23388;SDS011;11867;51.198;11.966;2022-12-18T01:38:37;36.10;;;16.88;;
23388;SDS011;11867;51.198;11.966;2022-12-18T01:39:39;33.10;;;16.27;;
23388;SDS011;11867;51.198;11.966;2022-12-18T01:40:45;36.47;;;16.23;;
23388;SDS011;11867;51.198;11.966;2022-12-18T01:41:47;33.17;;;16.27;;
23388;SDS011;11867;51.198;11.966;2022-12-18T01:43:05;29.52;;;14.52;;
23388;SDS011;11867;51.198;11.966;2022-12-18T01:45:46;37.22;;;15.63;;
23388;SDS011;11867;51.198;11.966;2022-12-18T01:46:49;39.75;;;15.90;;
23388;SDS011;11867;51.198;11.966;2022-12-18T01:47:51;34.92;;;16.70;;
23388;SDS011;11867;51.198;11.966;2022-12-18T01:48:57;36.30;;;16.15;;
23388;SDS011;11867;51.198;11.966;2022-12-18T01:50:03;35.22;;;16.17;;
23388;SDS011;11867;51.198;11.966;2022-12-18T01:51:10;33.78;;;16.63;;
23388;SDS011;11867;51.198;11.966;2022-12-18T01:52:14;30.95;;;15.75;;
23388;SDS011;11867;51.198;11.966;2022-12-18T01:53:20;29.98;;;15.52;;
23388;SDS011;11867;51.198;11.966;2022-12-18T01:54:28;38.85;;;16.50;;
23388;SDS011;11867;51.198;11.966;2022-12-18T01:55:31;29.33;;;15.07;;
23388;SDS011;11867;51.198;11.966;2022-12-18T01:56:39;31.52;;;16.25;;
23388;SDS011;11867;51.198;11.966;2022-12-18T01:57:41;33.75;;;16.20;;
23388;SDS011;11867;51.198;11.966;2022-12-18T01:58:46;31.00;;;16.08;;
23388;SDS011;11867;51.198;11.966;2022-12-18T01:59:55;19.75;;;11.38;;
23388;SDS011;11867;51.198;11.966;2022-12-18T02:01:04;31.40;;;15.65;;
23388;SDS011;11867;51.198;11.966;2022-12-18T02:02:06;32.00;;;16.00;;
23388;SDS011;11867;51.198;11.966;2022-12-18T02:03:10;30.08;;;15.02;;
23388;SDS011;11867;51.198;11.966;2022-12-18T02:04:19;26.70;;;13.57;;
23388;SDS011;11867;51.198;11.966;2022-12-18T02:05:26;25.65;;;14.23;;
23388;SDS011;11867;51.198;11.966;2022-12-18T02:06:39;31.02;;;13.95;;
23388;SDS011;11867;51.198;11.966;2022-12-18T02:07:45;27.40;;;14.30;;
23388;SDS011;11867;51.198;11.966;2022-12-18T02:09:02;27.83;;;14.45;;
23388;SDS011;11867;51.198;11.966;2022-12-18T02:10:13;32.20;;;14.75;;
23388;SDS011;11867;51.198;11.966;2022-12-18T02:11:23;29.15;;;15.00;;
23388;SDS011;11867;51.198;11.966;2022-12-18T02:12:42;29.08;;;14.23;;
23388;SDS011;11867;51.198;11.966;2022-12-18T02:13:46;28.15;;;13.75;;
23388;SDS011;11867;51.198;11.966;2022-12-18T02:14:59;26.02;;;13.10;;
23388;SDS011;11867;51.198;11.966;2022-12-18T02:16:08;31.85;;;14.18;;
23388;SDS011;11867;51.198;11.966;2022-12-18T02:17:18;27.25;;;11.60;;
23388;SDS011;11867;51.198;11.966;2022-12-18T02:18:23;30.55;;;14.18;;
23388;SDS011;11867;51.198;11.966;2022-12-18T02:19:41;29.70;;;14.05;;
23388;SDS011;11867;51.198;11.966;2022-12-18T02:20:49;29.35;;;14.27;;
23388;SDS011;11867;51.198;11.966;2022-12-18T02:22:00;31.92;;;14.00;;
23388;SDS011;11867;51.198;11.966;2022-12-18T02:23:17;24.90;;;13.60;;
23388;SDS011;11867;51.198;11.966;2022-12-18T02:24:29;33.90;;;14.30;;
23388;SDS011;11867;51.198;11.966;2022-12-18T02:25:53;28.90;;;14.88;;
23388;SDS011;11867;51.198;11.966;2022-12-18T02:27:07;30.77;;;14.38;;
23388;SDS011;11867;51.198;11.966;2022-12-18T02:28:11;29.70;;;13.65;;
23388;SDS011;11867;51.198;11.966;2022-12-18T02:29:20;32.05;;;14.32;;
23388;SDS011;11867;51.198;11.966;2022-12-18T02:30:25;30.20;;;15.05;;
23388;SDS011;11867;51.198;11.966;2022-12-18T02:31:32;26.50;;;13.50;;
23388;SDS011;11867;51.198;11.966;2022-12-18T02:32:37;27.15;;;13.25;;
23388;SDS011;11867;51.198;11.966;2022-12-18T02:33:43;27.60;;;14.25;;
23388;SDS011;11867;51.198;11.966;2022-12-18T02:34:47;27.17;;;14.35;;
23388;SDS011;11867;51.198;11.966;2022-12-18T02:35:51;29.63;;;14.10;;
23388;SDS011;11867;51.198;11.966;2022-12-18T02:36:55;28.08;;;14.95;;
23388;SDS011;11867;51.198;11.966;2022-12-18T02:38:00;27.45;;;14.20;;
23388;SDS011;11867;51.198;11.966;2022-12-18T02:39:04;28.23;;;14.10;;
23388;SDS011;11867;51.198;11.966;2022-12-18T02:40:10;27.05;;;13.90;;
23388;SDS011;11867;51.198;11.966;2022-12-18T02:41:15;24.48;;;12.95;;
23388;SDS011;11867;51.198;11.966;2022-12-18T02:42:19;26.20;;;13.65;;
23388;SDS011;11867;51.198;11.966;2022-12-18T02:43:23;25.17;;;13.23;;
23388;SDS011;11867;51.198;11.966;2022-12-18T02:44:26;27.85;;;13.43;;
23388;SDS011;11867;51.198;11.966;2022-12-18T02:45:28;29.10;;;13.98;;
23388;SDS011;11867;51.198;11.966;2022-12-18T02:46:33;26.75;;;13.35;;
23388;SDS011;11867;51.198;11.966;2022-12-18T02:47:39;25.70;;;13.55;;
23388;SDS011;11867;51.198;11.966;2022-12-18T02:48:44;27.92;;;13.65;;
23388;SDS011;11867;51.198;11.966;2022-12-18T02:49:51;29.25;;;13.63;;
23388;SDS011;11867;51.198;11.966;2022-12-18T02:51:01;26.17;;;13.45;;
23388;SDS011;11867;51.198;11.966;2022-12-18T02:52:10;29.65;;;13.90;;
23388;SDS011;11867;51.198;11.966;2022-12-18T02:53:21;27.27;;;12.48;;
23388;SDS011;11867;51.198;11.966;2022-12-18T02:54:33;26.35;;;13.70;;
23388;SDS011;11867;51.198;11.966;2022-12-18T02:55:48;29.80;;;13.57;;
23388;SDS011;11867;51.198;11.966;2022-12-18T02:57:01;26.55;;;13.30;;
23388;SDS011;11867;51.198;11.966;2022-12-18T02:58:13;26.90;;;13.38;;
23388;SDS011;11867;51.198;11.966;2022-12-18T02:59:18;28.30;;;13.32;;
23388;SDS011;11867;51.198;11.966;2022-12-18T03:00:27;28.10;;;12.68;;
23388;SDS011;11867;51.198;11.966;2022-12-18T03:01:35;27.85;;;13.65;;
23388;SDS011;11867;51.198;11.966;2022-12-18T03:02:46;24.67;;;13.00;;
23388;SDS011;11867;51.198;11.966;2022-12-18T03:03:56;21.95;;;9.70;;
23388;SDS011;11867;51.198;11.966;2022-12-18T03:05:03;24.20;;;12.38;;
23388;SDS011;11867;51.198;11.966;2022-12-18T03:06:12;27.83;;;12.65;;
23388;SDS011;11867;51.198;11.966;2022-12-18T03:07:26;24.70;;;12.20;;
23388;SDS011;11867;51.198;11.966;2022-12-18T03:08:36;29.70;;;12.45;;
23388;SDS011;11867;51.198;11.966;2022-12-18T03:09:42;22.77;;;12.35;;
23388;SDS011;11867;51.198;11.966;2022-12-18T03:10:49;26.58;;;13.13;;
23388;SDS011;11867;51.198;11.966;2022-12-18T03:11:56;27.13;;;13.55;;
23388;SDS011;11867;51.198;11.966;2022-12-18T03:13:23;31.08;;;12.68;;
23388;SDS011;11867;51.198;11.966;2022-12-18T03:14:34;26.05;;;12.68;;
23388;SDS011;11867;51.198;11.966;2022-12-18T03:15:39;24.23;;;12.15;;
23388;SDS011;11867;51.198;11.966;2022-12-18T03:16:47;26.27;;;13.68;;
23388;SDS011;11867;51.198;11.966;2022-12-18T03:17:54;27.90;;;13.50;;
23388;SDS011;11867;51.198;11.966;2022-12-18T03:19:01;27.13;;;13.13;;
23388;SDS011;11867;51.198;11.966;2022-12-18T03:20:08;24.65;;;11.88;;
23388;SDS011;11867;51.198;11.966;2022-12-18T03:21:14;29.05;;;13.40;;
23388;SDS011;11867;51.198;11.966;2022-12-18T03:22:18;29.73;;;13.80;;
23388;SDS011;11867;51.198;11.966;2022-12-18T03:23:24;27.42;;;12.60;;
23388;SDS011;11867;51.198;11.966;2022-12-18T03:24:30;25.50;;;13.02;;
23388;SDS011;11867;51.198;11.966;2022-12-18T03:25:35;28.50;;;13.30;;
23388;SDS011;11867;51.198;11.966;2022-12-18T03:26:44;27.23;;;14.40;;
23388;SDS011;11867;51.198;11.966;2022-12-18T03:27:57;30.08;;;14.52;;
23388;SDS011;11867;51.198;11.966;2022-12-18T03:29:03;36.70;;;14.13;;
23388;SDS011;11867;51.198;11.966;2022-12-18T03:30:10;38.03;;;16.77;;
23388;SDS011;11867;51.198;11.966;2022-12-18T03:31:14;33.75;;;14.85;;
23388;SDS011;11867;51.198;11.966;2022-12-18T03:32:19;30.65;;;14.40;;
23388;SDS011;11867;51.198;11.966;2022-12-18T03:33:25;39.35;;;18.42;;
23388;SDS011;11867;51.198;11.966;2022-12-18T03:34:34;54.33;;;22.27;;
23388;SDS011;11867;51.198;11.966;2022-12-18T03:35:39;32.92;;;14.13;;
23388;SDS011;11867;51.198;11.966;2022-12-18T03:36:44;32.33;;;12.98;;
23388;SDS011;11867;51.198;11.966;2022-12-18T03:37:46;24.50;;;12.25;;
23388;SDS011;11867;51.198;11.966;2022-12-18T03:38:49;27.48;;;13.10;;
23388;SDS011;11867;51.198;11.966;2022-12-18T03:39:52;23.17;;;12.65;;
23388;SDS011;11867;51.198;11.966;2022-12-18T03:40:57;25.52;;;11.82;;
23388;SDS011;11867;51.198;11.966;2022-12-18T03:42:05;25.25;;;12.32;;
23388;SDS011;11867;51.198;11.966;2022-12-18T03:43:16;22.73;;;11.73;;
23388;SDS011;11867;51.198;11.966;2022-12-18T03:44:24;15.23;;;9.25;;
23388;SDS011;11867;51.198;11.966;2022-12-18T03:46:39;24.20;;;11.93;;
23388;SDS011;11867;51.198;11.966;2022-12-18T03:47:51;21.77;;;10.50;;
23388;SDS011;11867;51.198;11.966;2022-12-18T03:49:02;24.17;;;11.73;;
23388;SDS011;11867;51.198;11.966;2022-12-18T03:50:13;22.02;;;12.25;;
23388;SDS011;11867;51.198;11.966;2022-12-18T03:51:22;27.88;;;12.30;;
23388;SDS011;11867;51.198;11.966;2022-12-18T03:52:33;22.45;;;9.45;;
23388;SDS011;11867;51.198;11.966;2022-12-18T03:53:40;27.90;;;12.30;;
23388;SDS011;11867;51.198;11.966;2022-12-18T03:54:47;23.73;;;11.13;;
23388;SDS011;11867;51.198;11.966;2022-12-18T03:55:50;26.55;;;12.27;;
23388;SDS011;11867;51.198;11.966;2022-12-18T03:56:54;21.25;;;11.43;;
23388;SDS011;11867;51.198;11.966;2022-12-18T03:58:03;17.38;;;9.85;;
23388;SDS011;11867;51.198;11.966;2022-12-18T03:59:09;24.60;;;11.35;;
23388;SDS011;11867;51.198;11.966;2022-12-18T04:00:14;23.63;;;12.23;;
23388;SDS011;11867;51.198;11.966;2022-12-18T04:01:19;22.83;;;11.80;;
23388;SDS011;11867;51.198;11.966;2022-12-18T04:02:26;27.17;;;11.93;;
23388;SDS011;11867;51.198;11.966;2022-12-18T04:03:30;21.35;;;12.05;;
23388;SDS011;11867;51.198;11.966;2022-12-18T04:04:37;20.60;;;11.55;;
23388;SDS011;11867;51.198;11.966;2022-12-18T04:05:41;25.50;;;11.32;;
23388;SDS011;11867;51.198;11.966;2022-12-18T04:06:45;25.23;;;12.25;;
23388;SDS011;11867;51.198;11.966;2022-12-18T04:07:49;28.77;;;12.65;;
23388;SDS011;11867;51.198;11.966;2022-12-18T04:08:53;22.52;;;11.80;;
23388;SDS011;11867;51.198;11.966;2022-12-18T04:09:58;25.23;;;12.05;;
23388;SDS011;11867;51.198;11.966;2022-12-18T04:11:03;23.25;;;11.98;;
23388;SDS011;11867;51.198;11.966;2022-12-18T04:12:05;22.75;;;10.82;;
23388;SDS011;11867;51.198;11.966;2022-12-18T04:13:10;22.85;;;11.52;;
23388;SDS011;11867;51.198;11.966;2022-12-18T04:14:13;21.65;;;11.77;;
23388;SDS011;11867;51.198;11.966;2022-12-18T04:15:18;22.50;;;12.38;;
23388;SDS011;11867;51.198;11.966;2022-12-18T04:16:20;22.20;;;11.63;;
23388;SDS011;11867;51.198;11.966;2022-12-18T04:17:23;21.58;;;11.75;;
23388;SDS011;11867;51.198;11.966;2022-12-18T04:18:25;25.83;;;11.57;;
23388;SDS011;11867;51.198;11.966;2022-12-18T04:19:30;30.98;;;12.05;;
23388;SDS011;11867;51.198;11.966;2022-12-18T04:20:33;26.80;;;11.82;;
23388;SDS011;11867;51.198;11.966;2022-12-18T04:21:35;22.48;;;12.00;;
23388;SDS011;11867;51.198;11.966;2022-12-18T04:22:37;27.10;;;12.63;;
23388;SDS011;11867;51.198;11.966;2022-12-18T04:23:39;24.85;;;12.40;;
23388;SDS011;11867;51.198;11.966;2022-12-18T04:24:42;25.35;;;12.20;;
23388;SDS011;11867;51.198;11.966;2022-12-18T04:25:44;24.80;;;12.60;;
23388;SDS011;11867;51.198;11.966;2022-12-18T04:26:47;22.23;;;11.50;;
23388;SDS011;11867;51.198;11.966;2022-12-18T04:27:49;23.08;;;12.27;;
23388;SDS011;11867;51.198;11.966;2022-12-18T04:28:51;21.52;;;11.95;;
23388;SDS011;11867;51.198;11.966;2022-12-18T04:29:54;20.98;;;11.27;;
23388;SDS011;11867;51.198;11.966;2022-12-18T04:30:57;20.83;;;11.07;;
23388;SDS011;11867;51.198;11.966;2022-12-18T04:31:59;23.15;;;11.48;;
23388;SDS011;11867;51.198;11.966;2022-12-18T04:33:01;24.10;;;11.23;;
23388;SDS011;11867;51.198;11.966;2022-12-18T04:34:06;25.40;;;12.80;;
23388;SDS011;11867;51.198;11.966;2022-12-18T04:35:09;23.42;;;11.52;;
23388;SDS011;11867;51.198;11.966;2022-12-18T04:36:12;29.45;;;12.10;;
23388;SDS011;11867;51.198;11.966;2022-12-18T04:37:15;24.85;;;12.43;;
23388;SDS011;11867;51.198;11.966;2022-12-18T04:38:16;25.48;;;12.75;;
23388;SDS011;11867;51.198;11.966;2022-12-18T04:39:19;26.50;;;11.60;;
23388;SDS011;11867;51.198;11.966;2022-12-18T04:40:20;24.80;;;12.70;;
23388;SDS011;11867;51.198;11.966;2022-12-18T04:41:23;24.63;;;11.85;;
23388;SDS011;11867;51.198;11.966;2022-12-18T04:42:25;25.25;;;12.43;;
23388;SDS011;11867;51.198;11.966;2022-12-18T04:43:27;24.50;;;12.18;;
23388;SDS011;11867;51.198;11.966;2022-12-18T04:44:29;24.20;;;12.48;;
23388;SDS011;11867;51.198;11.966;2022-12-18T04:45:33;25.02;;;12.05;;
23388;SDS011;11867;51.198;11.966;2022-12-18T04:46:35;26.38;;;10.80;;
23388;SDS011;11867;51.198;11.966;2022-12-18T04:47:37;21.70;;;11.60;;
23388;SDS011;11867;51.198;11.966;2022-12-18T04:48:39;24.40;;;11.57;;
23388;SDS011;11867;51.198;11.966;2022-12-18T04:49:42;27.00;;;12.15;;
23388;SDS011;11867;51.198;11.966;2022-12-18T04:50:43;22.42;;;11.77;;
23388;SDS011;11867;51.198;11.966;2022-12-18T04:51:46;25.20;;;11.75;;
23388;SDS011;11867;51.198;11.966;2022-12-18T04:52:49;23.67;;;11.55;;
23388;SDS011;11867;51.198;11.966;2022-12-18T04:53:52;25.00;;;12.63;;
23388;SDS011;11867;51.198;11.966;2022-12-18T04:54:55;23.95;;;11.90;;
23388;SDS011;11867;51.198;11.966;2022-12-18T04:56:03;30.10;;;12.00;;
23388;SDS011;11867;51.198;11.966;2022-12-18T04:57:07;16.17;;;9.35;;
23388;SDS011;11867;51.198;11.966;2022-12-18T04:58:08;20.20;;;11.00;;
23388;SDS011;11867;51.198;11.966;2022-12-18T04:59:22;22.42;;;11.55;;
23388;SDS011;11867;51.198;11.966;2022-12-18T05:00:24;22.83;;;11.85;;
23388;SDS011;11867;51.198;11.966;2022-12-18T05:01:30;24.02;;;11.73;;
23388;SDS011;11867;51.198;11.966;2022-12-18T05:02:35;23.80;;;10.88;;
23388;SDS011;11867;51.198;11.966;2022-12-18T05:03:38;22.35;;;10.65;;
23388;SDS011;11867;51.198;11.966;2022-12-18T05:04:43;21.17;;;11.15;;
23388;SDS011;11867;51.198;11.966;2022-12-18T05:05:48;20.77;;;11.32;;
23388;SDS011;11867;51.198;11.966;2022-12-18T05:06:53;22.33;;;10.93;;
23388;SDS011;11867;51.198;11.966;2022-12-18T05:07:56;21.30;;;10.93;;
23388;SDS011;11867;51.198;11.966;2022-12-18T05:08:58;22.20;;;10.95;;
23388;SDS011;11867;51.198;11.966;2022-12-18T05:10:02;22.60;;;11.23;;
23388;SDS011;11867;51.198;11.966;2022-12-18T05:11:07;22.35;;;10.90;;
23388;SDS011;11867;51.198;11.966;2022-12-18T05:12:10;21.90;;;10.63;;
23388;SDS011;11867;51.198;11.966;2022-12-18T05:13:12;21.33;;;11.57;;
23388;SDS011;11867;51.198;11.966;2022-12-18T05:14:15;20.77;;;10.40;;
23388;SDS011;11867;51.198;11.966;2022-12-18T05:15:17;24.80;;;11.38;;
23388;SDS011;11867;51.198;11.966;2022-12-18T05:16:19;21.80;;;11.40;;
23388;SDS011;11867;51.198;11.966;2022-12-18T05:17:23;23.08;;;10.85;;
23388;SDS011;11867;51.198;11.966;2022-12-18T05:18:28;24.42;;;10.93;;
23388;SDS011;11867;51.198;11.966;2022-12-18T05:19:31;19.90;;;10.68;;
23388;SDS011;11867;51.198;11.966;2022-12-18T05:20:32;22.50;;;10.52;;
23388;SDS011;11867;51.198;11.966;2022-12-18T05:21:37;18.00;;;10.57;;
23388;SDS011;11867;51.198;11.966;2022-12-18T05:22:39;25.65;;;10.77;;
23388;SDS011;11867;51.198;11.966;2022-12-18T05:23:43;20.40;;;11.35;;
23388;SDS011;11867;51.198;11.966;2022-12-18T05:24:45;21.75;;;11.00;;
23388;SDS011;11867;51.198;11.966;2022-12-18T05:25:50;20.58;;;10.27;;
23388;SDS011;11867;51.198;11.966;2022-12-18T05:26:52;24.33;;;10.90;;
23388;SDS011;11867;51.198;11.966;2022-12-18T05:27:55;23.83;;;10.20;;
23388;SDS011;11867;51.198;11.966;2022-12-18T05:28:59;23.67;;;11.10;;
23388;SDS011;11867;51.198;11.966;2022-12-18T05:30:02;19.40;;;10.52;;
23388;SDS011;11867;51.198;11.966;2022-12-18T05:31:04;21.63;;;11.02;;
23388;SDS011;11867;51.198;11.966;2022-12-18T05:32:07;21.92;;;10.45;;
23388;SDS011;11867;51.198;11.966;2022-12-18T05:33:10;21.48;;;10.13;;
23388;SDS011;11867;51.198;11.966;2022-12-18T05:34:13;20.27;;;9.88;;
23388;SDS011;11867;51.198;11.966;2022-12-18T05:35:15;22.27;;;10.00;;
23388;SDS011;11867;51.198;11.966;2022-12-18T05:36:18;20.55;;;10.63;;
23388;SDS011;11867;51.198;11.966;2022-12-18T05:37:19;25.83;;;11.45;;
23388;SDS011;11867;51.198;11.966;2022-12-18T05:38:22;17.80;;;10.05;;
23388;SDS011;11867;51.198;11.966;2022-12-18T05:39:25;24.98;;;11.35;;
23388;SDS011;11867;51.198;11.966;2022-12-18T05:40:30;21.38;;;10.35;;
23388;SDS011;11867;51.198;11.966;2022-12-18T05:41:33;22.70;;;10.32;;
23388;SDS011;11867;51.198;11.966;2022-12-18T05:42:36;16.55;;;9.90;;
23388;SDS011;11867;51.198;11.966;2022-12-18T05:43:38;23.02;;;10.27;;
23388;SDS011;11867;51.198;11.966;2022-12-18T05:44:42;23.65;;;10.88;;
23388;SDS011;11867;51.198;11.966;2022-12-18T05:45:45;21.35;;;9.93;;
23388;SDS011;11867;51.198;11.966;2022-12-18T05:46:48;24.00;;;10.38;;
23388;SDS011;11867;51.198;11.966;2022-12-18T05:47:54;23.45;;;10.55;;
23388;SDS011;11867;51.198;11.966;2022-12-18T05:49:00;22.73;;;11.02;;
23388;SDS011;11867;51.198;11.966;2022-12-18T05:50:02;20.70;;;10.65;;
23388;SDS011;11867;51.198;11.966;2022-12-18T05:51:09;18.38;;;10.60;;
23388;SDS011;11867;51.198;11.966;2022-12-18T05:52:12;22.55;;;11.52;;
23388;SDS011;11867;51.198;11.966;2022-12-18T05:53:16;25.40;;;11.32;;
23388;SDS011;11867;51.198;11.966;2022-12-18T05:54:26;25.05;;;10.00;;
23388;SDS011;11867;51.198;11.966;2022-12-18T05:55:32;20.77;;;11.00;;
23388;SDS011;11867;51.198;11.966;2022-12-18T05:56:34;20.75;;;11.07;;
23388;SDS011;11867;51.198;11.966;2022-12-18T05:57:39;23.40;;;10.23;;
23388;SDS011;11867;51.198;11.966;2022-12-18T05:58:40;22.13;;;10.93;;
23388;SDS011;11867;51.198;11.966;2022-12-18T05:59:43;22.40;;;11.13;;
23388;SDS011;11867;51.198;11.966;2022-12-18T06:00:45;24.48;;;11.32;;
23388;SDS011;11867;51.198;11.966;2022-12-18T06:01:48;21.00;;;10.40;;
23388;SDS011;11867;51.198;11.966;2022-12-18T06:02:50;24.35;;;11.13;;
23388;SDS011;11867;51.198;11.966;2022-12-18T06:03:53;22.13;;;11.15;;
23388;SDS011;11867;51.198;11.966;2022-12-18T06:04:57;20.17;;;10.15;;
23388;SDS011;11867;51.198;11.966;2022-12-18T06:06:02;22.48;;;10.93;;
23388;SDS011;11867;51.198;11.966;2022-12-18T06:07:04;23.83;;;10.93;;
23388;SDS011;11867;51.198;11.966;2022-12-18T06:08:07;21.80;;;10.90;;
23388;SDS011;11867;51.198;11.966;2022-12-18T06:09:10;21.45;;;11.35;;
23388;SDS011;11867;51.198;11.966;2022-12-18T06:10:15;22.80;;;10.93;;
23388;SDS011;11867;51.198;11.966;2022-12-18T06:11:20;27.55;;;12.60;;
23388;SDS011;11867;51.198;11.966;2022-12-18T06:12:24;26.67;;;11.45;;
23388;SDS011;11867;51.198;11.966;2022-12-18T06:13:26;24.58;;;11.95;;
23388;SDS011;11867;51.198;11.966;2022-12-18T06:14:29;27.77;;;11.77;;
23388;SDS011;11867;51.198;11.966;2022-12-18T06:15:30;22.75;;;11.80;;
23388;SDS011;11867;51.198;11.966;2022-12-18T06:16:33;25.20;;;12.05;;
23388;SDS011;11867;51.198;11.966;2022-12-18T06:17:35;22.83;;;11.85;;